createdAt,value
2023-01-01T00:00:31.943Z,629.73
2023-01-01T00:03:01.712Z,702.37
2023-01-01T00:05:30.206Z,657.17
2023-01-01T00:08:04.284Z,634.00
2023-01-01T00:10:33.283Z,619.57
2023-01-01T00:13:01.892Z,651.60
2023-01-01T00:15:30.424Z,581.90
2023-01-01T00:17:58.926Z,548.43
2023-01-01T00:20:34.722Z,558.83
2023-01-01T00:23:04.398Z,585.37
2023-01-01T00:25:33.367Z,608.77
2023-01-01T00:28:02.197Z,580.50
2023-01-01T00:30:30.622Z,591.83
2023-01-01T00:32:59.035Z,615.87
2023-01-01T00:35:29.267Z,536.10
2023-01-01T00:37:57.701Z,538.43
2023-01-01T00:40:26.149Z,527.97
2023-01-01T00:42:55.599Z,527.70
2023-01-01T00:45:24.457Z,491.87
2023-01-01T00:47:54.248Z,522.70
2023-01-01T00:50:23.604Z,506.40
2023-01-01T00:52:53.331Z,520.53
2023-01-01T00:55:21.798Z,510.30
2023-01-01T00:57:50.177Z,505.27
2023-01-01T01:00:19.031Z,508.83
2023-01-01T01:02:47.590Z,504.27
2023-01-01T01:05:16.208Z,511.70
2023-01-01T01:07:44.787Z,523.43
2023-01-01T01:10:14.670Z,509.37
2023-01-01T01:12:43.071Z,502.60
2023-01-01T01:15:12.217Z,504.17
2023-01-01T01:17:40.895Z,495.60
2023-01-01T01:20:10.584Z,495.13
2023-01-01T01:22:39.491Z,487.60
2023-01-01T01:25:08.899Z,494.87
2023-01-01T01:27:38.802Z,488.50
2023-01-01T01:30:08.995Z,487.43
2023-01-01T01:32:37.459Z,488.70
2023-01-01T01:35:06.697Z,491.80
2023-01-01T01:37:35.179Z,493.60
2023-01-01T01:40:04.028Z,495.37
2023-01-01T01:42:32.739Z,495.50
2023-01-01T01:45:03.563Z,502.87
2023-01-01T01:47:34.968Z,526.13
2023-01-01T01:50:08.512Z,598.97
2023-01-01T01:52:39.618Z,597.57
2023-01-01T01:55:09.597Z,612.97
2023-01-01T01:57:40.331Z,631.50
2023-01-01T02:00:12.044Z,574.47
2023-01-01T02:02:44.728Z,540.67
2023-01-01T02:05:13.387Z,551.83
2023-01-01T02:07:42.498Z,573.37
2023-01-01T02:10:11.314Z,574.87
2023-01-01T02:12:39.763Z,558.43
2023-01-01T02:15:10.746Z,549.23
2023-01-01T02:17:43.578Z,543.57
2023-01-01T02:20:28.319Z,529.23
2023-01-01T02:23:16.055Z,510.97
2023-01-01T02:25:51.563Z,517.47
2023-01-01T02:28:33.396Z,505.93
2023-01-01T02:31:03.081Z,520.27
2023-01-01T02:33:32.045Z,507.07
2023-01-01T02:36:03.104Z,502.60
2023-01-01T02:38:33.291Z,502.23
2023-01-01T02:41:03.214Z,518.90
2023-01-01T02:43:33.011Z,522.67
2023-01-01T02:46:07.088Z,524.27
2023-01-01T02:48:39.799Z,540.53
2023-01-01T02:51:15.727Z,530.50
2023-01-01T02:53:48.357Z,529.77
2023-01-01T02:56:23.085Z,524.10
2023-01-01T02:59:16.696Z,539.87
2023-01-01T03:01:48.148Z,532.20
2023-01-01T03:04:25.408Z,521.97
2023-01-01T03:06:57.698Z,541.47
2023-01-01T03:09:32.119Z,528.03
2023-01-01T03:12:10.790Z,537.87
2023-01-01T03:14:45.505Z,526.43
2023-01-01T03:17:19.245Z,514.07
2023-01-01T03:19:48.568Z,504.83
2023-01-01T03:22:18.557Z,518.13
2023-01-01T03:24:50.955Z,494.23
2023-01-01T03:27:21.855Z,517.10
2023-01-01T03:29:54.116Z,501.03
2023-01-01T03:32:46.706Z,496.40
2023-01-01T03:35:16.017Z,492.30
2023-01-01T03:37:45.991Z,418.47
2023-01-01T03:40:15.129Z,487.07
2023-01-01T03:42:47.856Z,472.73
2023-01-01T03:45:21.192Z,471.80
2023-01-01T03:47:49.855Z,466.53
2023-01-01T03:50:18.852Z,457.70
2023-01-01T03:52:52.195Z,438.47
2023-01-01T03:55:25.200Z,427.77
2023-01-01T03:57:59.757Z,451.37
2023-01-01T04:00:33.050Z,440.40
2023-01-01T04:03:03.346Z,452.53
2023-01-01T04:05:32.563Z,444.47
2023-01-01T04:08:03.325Z,431.27
2023-01-01T04:10:33.080Z,454.37
2023-01-01T04:13:04.510Z,434.13
2023-01-01T04:15:35.975Z,447.60
2023-01-01T04:18:05.050Z,416.33
2023-01-01T04:20:33.475Z,426.47
2023-01-01T04:23:02.958Z,405.73
2023-01-01T04:25:32.392Z,430.97
2023-01-01T04:28:03.321Z,426.57
2023-01-01T04:30:31.810Z,409.17
2023-01-01T04:33:01.657Z,409.67
2023-01-01T04:35:30.139Z,416.10
2023-01-01T04:37:59.054Z,437.10
2023-01-01T04:40:27.418Z,421.23
2023-01-01T04:42:55.840Z,399.20
2023-01-01T04:45:24.307Z,383.10
2023-01-01T04:47:52.750Z,349.77
2023-01-01T04:50:22.520Z,359.27
2023-01-01T04:52:53.046Z,359.00
2023-01-01T04:55:21.583Z,346.10
2023-01-01T04:57:49.996Z,357.67
2023-01-01T05:00:18.990Z,357.07
2023-01-01T05:02:47.857Z,339.43
2023-01-01T05:05:19.075Z,330.60
2023-01-01T05:07:48.925Z,309.93
2023-01-01T05:10:17.380Z,264.13
2023-01-01T05:12:45.803Z,293.10
2023-01-01T05:15:14.223Z,289.03
2023-01-01T05:17:42.706Z,278.93
2023-01-01T05:20:11.844Z,263.93
2023-01-01T05:22:42.674Z,238.57
2023-01-01T05:25:12.505Z,239.67
2023-01-01T05:27:40.999Z,242.33
2023-01-01T05:30:10.320Z,233.70
2023-01-01T05:32:38.992Z,263.27
2023-01-01T05:35:07.869Z,246.13
2023-01-01T05:37:36.314Z,258.67
2023-01-01T05:40:05.311Z,253.20
2023-01-01T05:42:36.073Z,266.87
2023-01-01T05:45:05.099Z,248.23
2023-01-01T05:47:33.571Z,246.90
2023-01-01T05:52:30.216Z,202.07
2023-01-01T05:54:59.291Z,236.73
2023-01-01T05:57:28.999Z,205.47
2023-01-01T05:59:58.846Z,189.30
2023-01-01T06:02:27.239Z,200.13
2023-01-01T06:04:56.303Z,188.23
2023-01-01T06:07:24.795Z,167.77
2023-01-01T06:09:53.222Z,193.67
2023-01-01T06:12:21.698Z,203.10
2023-01-01T06:14:50.773Z,191.70
2023-01-01T06:17:20.881Z,203.93
2023-01-01T06:19:49.612Z,204.77
2023-01-01T06:22:18.247Z,236.33
2023-01-01T06:24:46.667Z,250.63
2023-01-01T06:27:15.192Z,259.63
2023-01-01T06:29:43.731Z,279.60
2023-01-01T06:32:12.104Z,298.77
2023-01-01T06:34:41.875Z,289.23
2023-01-01T06:37:10.498Z,296.80
2023-01-01T06:39:38.894Z,296.07
2023-01-01T06:42:07.409Z,278.90
2023-01-01T06:44:35.800Z,285.47
2023-01-01T06:47:04.281Z,280.83
2023-01-01T06:49:32.827Z,274.97
2023-01-01T06:52:03.150Z,285.07
2023-01-01T06:54:32.299Z,266.77
2023-01-01T06:57:01.202Z,265.43
2023-01-01T06:59:29.715Z,261.67
2023-01-01T07:01:58.323Z,264.77
2023-01-01T07:04:26.799Z,255.90
2023-01-01T07:06:55.961Z,259.50
2023-01-01T07:09:25.741Z,254.07
2023-01-01T07:11:54.292Z,245.63
2023-01-01T07:14:22.857Z,245.77
2023-01-01T07:16:52.395Z,239.87
2023-01-01T07:19:21.222Z,253.47
2023-01-01T07:21:54.332Z,251.53
2023-01-01T07:24:23.013Z,237.67
2023-01-01T07:26:53.028Z,254.07
2023-01-01T07:29:21.633Z,249.40
2023-01-01T07:31:50.049Z,251.90
2023-01-01T07:34:20.117Z,260.83
2023-01-01T07:36:48.577Z,254.47
2023-01-01T07:39:16.985Z,247.27
2023-01-01T07:41:45.799Z,244.13
2023-01-01T07:44:16.506Z,224.17
2023-01-01T07:46:45.237Z,232.63
2023-01-01T07:49:13.938Z,232.37
2023-01-01T07:51:42.369Z,220.37
2023-01-01T07:54:10.820Z,226.27
2023-01-01T07:56:39.451Z,230.03
2023-01-01T07:59:08.262Z,234.17
2023-01-01T08:01:38.831Z,234.70
2023-01-01T08:04:07.592Z,229.87
2023-01-01T08:06:36.181Z,224.77
2023-01-01T08:09:04.910Z,220.80
2023-01-01T08:11:33.418Z,232.43
2023-01-01T08:14:02.871Z,212.43
2023-01-01T08:16:32.010Z,212.47
2023-01-01T08:19:01.859Z,211.73
2023-01-01T08:21:30.528Z,212.83
2023-01-01T08:23:59.111Z,206.70
2023-01-01T08:26:29.329Z,203.87
2023-01-01T08:28:58.095Z,203.00
2023-01-01T08:31:27.321Z,200.57
2023-01-01T08:33:56.067Z,206.20
2023-01-01T08:36:26.316Z,203.33
2023-01-01T08:38:54.809Z,191.93
2023-01-01T08:41:23.517Z,196.07
2023-01-01T08:43:52.020Z,197.50
2023-01-01T08:46:20.637Z,201.07
2023-01-01T08:48:49.139Z,198.77
2023-01-01T08:51:18.052Z,191.80
2023-01-01T08:53:51.277Z,172.73
2023-01-01T08:56:20.811Z,160.37
2023-01-01T08:58:49.986Z,153.17
2023-01-01T09:01:21.474Z,152.63
2023-01-01T09:03:50.550Z,132.17
2023-01-01T09:06:19.512Z,121.23
2023-01-01T09:08:49.405Z,132.57
2023-01-01T09:11:23.188Z,122.07
2023-01-01T09:13:51.659Z,122.87
2023-01-01T09:16:20.302Z,113.90
2023-01-01T09:18:48.813Z,114.40
2023-01-01T09:21:17.279Z,104.30
2023-01-01T09:23:46.052Z,104.07
2023-01-01T09:26:16.057Z,98.90
2023-01-01T09:28:44.562Z,98.63
2023-01-01T09:31:13.099Z,89.57
2023-01-01T09:33:41.683Z,84.50
2023-01-01T09:36:17.128Z,88.20
2023-01-01T09:38:50.044Z,73.10
2023-01-01T09:41:24.745Z,75.20
2023-01-01T09:43:59.003Z,77.43
2023-01-01T09:46:31.736Z,71.87
2023-01-01T09:49:03.846Z,69.30
2023-01-01T09:51:41.126Z,71.83
2023-01-01T09:54:20.759Z,70.23
2023-01-01T09:56:54.539Z,62.67
2023-01-01T09:59:23.642Z,60.43
2023-01-01T10:01:57.795Z,62.73
2023-01-01T10:04:37.113Z,62.77
2023-01-01T10:07:13.708Z,63.27
2023-01-01T10:09:51.822Z,64.10
2023-01-01T10:12:28.157Z,62.40
2023-01-01T10:15:04.699Z,62.63
2023-01-01T10:17:35.956Z,55.03
2023-01-01T10:20:08.829Z,47.67
2023-01-01T10:22:41.626Z,57.27
2023-01-01T10:25:18.759Z,57.80
2023-01-01T10:27:59.098Z,53.17
2023-01-01T10:30:29.696Z,54.60
2023-01-01T10:32:58.719Z,56.57
2023-01-01T10:35:39.140Z,52.03
2023-01-01T10:38:08.799Z,53.60
2023-01-01T10:40:37.475Z,54.07
2023-01-01T10:43:12.492Z,50.90
2023-01-01T10:45:43.339Z,47.53
2023-01-01T10:48:17.787Z,43.40
2023-01-01T10:50:49.752Z,39.87
2023-01-01T10:53:33.551Z,38.57
2023-01-01T10:56:05.459Z,44.07
2023-01-01T10:58:44.051Z,38.73
2023-01-01T11:01:15.131Z,39.10
2023-01-01T11:04:20.120Z,34.40
2023-01-01T11:06:49.195Z,29.87
2023-01-01T11:09:21.944Z,25.13
2023-01-01T11:12:03.750Z,24.97
2023-01-01T11:14:40.458Z,25.33
2023-01-01T11:17:10.568Z,22.50
2023-01-01T11:19:44.341Z,22.73
2023-01-01T11:22:37.837Z,21.57
2023-01-01T11:25:18.538Z,20.30
2023-01-01T11:27:47.464Z,16.50
2023-01-01T11:30:28.700Z,17.53
2023-01-01T11:33:00.028Z,14.87
2023-01-01T11:35:30.602Z,16.03
2023-01-01T11:38:00.044Z,15.53
2023-01-01T11:40:32.410Z,21.10
2023-01-01T11:43:03.119Z,19.67
2023-01-01T11:45:37.828Z,17.27
2023-01-01T11:48:13.757Z,15.03
2023-01-01T11:50:53.788Z,16.07
2023-01-01T11:53:30.119Z,15.33
2023-01-01T11:56:04.878Z,19.50
2023-01-01T11:58:41.360Z,15.67
2023-01-01T12:01:15.792Z,15.00
2023-01-01T12:03:49.062Z,15.13
2023-01-01T12:06:21.999Z,20.97
2023-01-01T12:08:56.159Z,18.07
2023-01-01T12:11:28.991Z,24.67
2023-01-01T12:14:00.729Z,18.50
2023-01-01T12:16:40.476Z,19.97
2023-01-01T12:19:18.343Z,19.37
2023-01-01T12:21:52.647Z,18.30
2023-01-01T12:24:21.716Z,18.53
2023-01-01T12:27:05.248Z,20.97
2023-01-01T12:30:12.096Z,18.37
2023-01-01T12:33:12.966Z,18.63
2023-01-01T12:35:54.019Z,15.97
2023-01-01T12:38:43.286Z,16.37
2023-01-01T12:41:13.976Z,19.53
2023-01-01T12:43:48.792Z,21.30
2023-01-01T12:46:36.028Z,23.43
2023-01-01T12:49:36.092Z,21.67
2023-01-01T12:52:14.620Z,21.93
2023-01-01T12:55:21.208Z,21.97
2023-01-01T12:57:52.875Z,20.97
2023-01-01T13:00:22.064Z,19.27
2023-01-01T13:02:52.987Z,21.07
2023-01-01T13:05:24.541Z,19.77
2023-01-01T13:08:00.491Z,19.03
2023-01-01T13:10:34.251Z,20.13
2023-01-01T13:13:03.288Z,19.30
2023-01-01T13:15:48.532Z,19.43
2023-01-01T13:18:26.224Z,21.33
2023-01-01T13:21:04.391Z,19.53
2023-01-01T13:23:54.061Z,22.57
2023-01-01T13:26:44.476Z,18.30
2023-01-01T13:29:45.218Z,21.07
2023-01-01T13:32:16.269Z,16.07
2023-01-01T13:35:18.395Z,15.17
2023-01-01T13:37:48.525Z,15.13
2023-01-01T13:40:34.161Z,15.27
2023-01-01T13:43:08.191Z,13.87
2023-01-01T13:49:01.853Z,12.13
2023-01-01T13:52:08.320Z,13.07
2023-01-01T13:55:16.853Z,14.50
2023-01-01T13:58:15.182Z,13.40
2023-01-01T14:01:03.216Z,12.63
2023-01-01T14:03:37.579Z,11.53
2023-01-01T14:06:11.392Z,12.03
2023-01-01T14:08:40.301Z,11.73
2023-01-01T14:11:19.863Z,11.57
2023-01-01T14:13:49.757Z,13.90
2023-01-01T14:16:18.999Z,12.37
2023-01-01T14:18:49.975Z,13.00
2023-01-01T14:21:19.804Z,11.03
2023-01-01T14:23:52.028Z,12.47
2023-01-01T14:26:22.183Z,11.57
2023-01-01T14:28:54.664Z,12.40
2023-01-01T14:31:25.219Z,11.53
2023-01-01T14:33:53.691Z,10.70
2023-01-01T14:36:23.875Z,10.27
2023-01-01T14:38:53.787Z,13.97
2023-01-01T14:41:26.161Z,11.47
2023-01-01T14:43:57.814Z,12.33
2023-01-01T14:46:27.758Z,13.97
2023-01-01T14:48:58.158Z,13.90
2023-01-01T14:51:27.993Z,13.53
2023-01-01T14:53:58.276Z,13.37
2023-01-01T14:56:28.878Z,12.23
2023-01-01T14:59:05.394Z,11.23
2023-01-01T15:01:34.091Z,10.90
2023-01-01T15:04:04.632Z,10.70
2023-01-01T15:06:33.789Z,11.07
2023-01-01T15:09:02.377Z,12.23
2023-01-01T15:11:30.866Z,14.63
2023-01-01T15:14:02.777Z,13.03
2023-01-01T15:16:39.685Z,13.17
2023-01-01T15:19:19.133Z,11.47
2023-01-01T15:21:47.920Z,12.00
2023-01-01T15:24:22.028Z,11.73
2023-01-01T15:26:52.677Z,12.67
2023-01-01T15:29:28.569Z,10.43
2023-01-01T15:31:59.415Z,12.73
2023-01-01T15:34:31.607Z,15.57
2023-01-01T15:37:09.540Z,13.90
2023-01-01T15:39:49.050Z,13.43
2023-01-01T15:42:33.615Z,13.70
2023-01-01T15:45:22.389Z,17.33
2023-01-01T15:47:52.000Z,16.43
2023-01-01T15:50:26.095Z,16.67
2023-01-01T15:52:57.033Z,16.77
2023-01-01T15:55:27.811Z,18.03
2023-01-01T15:57:56.409Z,18.00
2023-01-01T16:00:29.545Z,16.43
2023-01-01T16:03:00.683Z,20.13
2023-01-01T16:05:30.725Z,17.90
2023-01-01T16:08:01.982Z,16.40
2023-01-01T16:10:31.769Z,16.50
2023-01-01T16:13:00.407Z,13.87
2023-01-01T16:15:30.257Z,16.33
2023-01-01T16:17:58.710Z,21.93
2023-01-01T16:20:27.625Z,19.70
2023-01-01T16:22:56.018Z,19.60
2023-01-01T16:25:24.521Z,21.20
2023-01-01T16:27:53.278Z,19.03
2023-01-01T16:30:26.114Z,20.93
2023-01-01T16:32:55.995Z,23.43
2023-01-01T16:35:24.480Z,35.73
2023-01-01T16:37:54.220Z,37.87
2023-01-01T16:40:23.015Z,30.77
2023-01-01T16:42:51.459Z,25.70
2023-01-01T16:45:20.113Z,20.07
2023-01-01T16:47:48.766Z,21.43
2023-01-01T16:50:19.650Z,20.27
2023-01-01T16:52:48.125Z,21.80
2023-01-01T16:55:16.708Z,26.37
2023-01-01T16:57:45.151Z,24.13
2023-01-01T17:00:15.639Z,18.73
2023-01-01T17:02:44.208Z,21.23
2023-01-01T17:05:12.808Z,20.03
2023-01-01T17:07:42.756Z,19.90
2023-01-01T17:10:11.244Z,21.73
2023-01-01T17:12:39.681Z,25.40
2023-01-01T17:15:08.878Z,24.23
2023-01-01T17:17:37.268Z,23.20
2023-01-01T17:20:07.319Z,23.77
2023-01-01T17:22:37.005Z,25.10
2023-01-01T17:25:08.256Z,22.30
2023-01-01T17:27:37.038Z,23.57
2023-01-01T17:30:06.607Z,25.83
2023-01-01T17:32:35.373Z,26.77
2023-01-01T17:35:04.003Z,26.10
2023-01-01T17:37:33.110Z,25.80
2023-01-01T17:40:01.775Z,24.73
2023-01-01T17:42:31.721Z,27.40
2023-01-01T17:45:00.401Z,24.97
2023-01-01T17:47:32.797Z,25.10
2023-01-01T17:50:02.037Z,24.23
2023-01-01T17:52:30.637Z,23.23
2023-01-01T17:54:59.525Z,24.43
2023-01-01T17:57:28.903Z,23.83
2023-01-01T17:59:59.417Z,22.23
2023-01-01T18:02:28.157Z,22.97
2023-01-01T18:04:56.837Z,21.60
2023-01-01T18:07:25.367Z,22.37
2023-01-01T18:09:53.876Z,25.60
2023-01-01T18:12:22.552Z,24.33
2023-01-01T18:14:51.044Z,25.03
2023-01-01T18:17:20.824Z,24.70
2023-01-01T18:19:49.652Z,25.57
2023-01-01T18:22:18.132Z,28.03
2023-01-01T18:24:46.772Z,30.07
2023-01-01T18:27:15.217Z,26.87
2023-01-01T18:29:43.764Z,26.63
2023-01-01T18:32:12.271Z,24.17
2023-01-01T18:34:42.167Z,24.23
2023-01-01T18:37:10.874Z,27.20
2023-01-01T18:39:41.902Z,21.33
2023-01-01T18:42:21.764Z,19.80
2023-01-01T18:44:50.256Z,19.67
2023-01-01T18:47:19.934Z,20.17
2023-01-01T18:49:55.143Z,22.80
2023-01-01T18:52:25.344Z,26.00
2023-01-01T18:55:03.317Z,18.77
2023-01-01T18:57:32.619Z,19.53
2023-01-01T19:00:02.129Z,16.27
2023-01-01T19:02:39.177Z,17.37
2023-01-01T19:05:18.293Z,20.23
2023-01-01T19:07:52.391Z,17.37
2023-01-01T19:10:20.943Z,21.07
2023-01-01T19:12:54.681Z,17.77
2023-01-01T19:15:23.753Z,16.83
2023-01-01T19:17:54.075Z,17.57
2023-01-01T19:20:24.902Z,17.10
2023-01-01T19:22:53.377Z,16.93
2023-01-01T19:25:37.920Z,18.60
2023-01-01T19:28:29.539Z,17.80
2023-01-01T19:30:58.125Z,21.10
2023-01-01T19:33:27.064Z,17.07
2023-01-01T19:35:57.137Z,16.83
2023-01-01T19:38:25.550Z,16.00
2023-01-01T19:40:54.302Z,18.87
2023-01-01T19:43:22.756Z,18.97
2023-01-01T19:45:51.215Z,19.33
2023-01-01T19:48:19.775Z,17.40
2023-01-01T19:50:48.469Z,17.90
2023-01-01T19:53:18.281Z,18.43
2023-01-01T19:55:47.216Z,17.63
2023-01-01T19:58:16.249Z,18.63
2023-01-01T20:00:44.839Z,20.20
2023-01-01T20:06:03.019Z,19.97
2023-01-01T20:08:33.089Z,17.00
2023-01-01T20:11:02.136Z,21.20
2023-01-01T20:13:30.825Z,17.30
2023-01-01T20:15:59.460Z,22.10
2023-01-01T20:18:27.925Z,17.83
2023-01-01T20:21:13.961Z,18.53
2023-01-01T20:23:43.911Z,16.77
2023-01-01T20:26:13.790Z,19.23
2023-01-01T20:28:59.910Z,17.30
2023-01-01T20:31:28.388Z,16.53
2023-01-01T20:33:58.068Z,15.13
2023-01-01T20:36:43.953Z,16.30
2023-01-01T20:39:13.856Z,15.17
2023-01-01T20:41:42.616Z,15.73
2023-01-01T20:44:11.139Z,18.63
2023-01-01T20:46:40.047Z,17.77
2023-01-01T20:49:08.457Z,18.50
2023-01-01T20:51:37.092Z,18.03
2023-01-01T20:54:05.535Z,15.87
2023-01-01T20:56:36.432Z,17.47
2023-01-01T20:59:31.257Z,16.63
2023-01-01T21:01:54.260Z,16.60
2023-01-01T21:04:22.825Z,17.00
2023-01-01T21:06:51.325Z,15.03
2023-01-01T21:09:19.739Z,16.10
2023-01-01T21:11:51.795Z,16.07
2023-01-01T21:14:20.997Z,18.70
2023-01-01T21:16:49.498Z,18.27
2023-01-01T21:19:24.381Z,19.20
2023-01-01T21:21:56.542Z,21.37
2023-01-01T21:24:27.475Z,20.30
2023-01-01T21:27:03.511Z,20.00
2023-01-01T21:29:33.399Z,14.73
2023-01-01T21:32:14.562Z,16.87
2023-01-01T21:34:43.979Z,18.97
2023-01-01T21:37:38.207Z,17.33
2023-01-01T21:40:28.406Z,17.93
2023-01-01T21:43:00.031Z,15.93
2023-01-01T21:45:32.515Z,17.23
2023-01-01T21:48:11.497Z,18.37
2023-01-01T21:50:41.715Z,16.33
2023-01-01T21:53:13.611Z,17.73
2023-01-01T21:55:52.921Z,16.93
2023-01-01T21:58:41.893Z,16.47
2023-01-01T22:01:32.091Z,20.50
2023-01-01T22:04:02.726Z,19.70
2023-01-01T22:06:35.962Z,17.23
2023-01-01T22:09:12.572Z,19.40
2023-01-01T22:11:41.249Z,17.77
2023-01-01T22:14:14.797Z,18.47
2023-01-01T22:16:44.056Z,18.30
2023-01-01T22:19:14.277Z,21.33
2023-01-01T22:21:42.824Z,21.43
2023-01-01T22:24:33.261Z,19.73
2023-01-01T22:27:17.505Z,20.13
2023-01-01T22:29:47.723Z,22.20
2023-01-01T22:32:20.658Z,28.73
2023-01-01T22:34:49.610Z,24.77
2023-01-01T22:37:20.573Z,28.60
2023-01-01T22:39:49.822Z,24.80
2023-01-01T22:42:19.645Z,26.90
2023-01-01T22:44:55.854Z,28.73
2023-01-01T22:47:27.787Z,25.97
2023-01-01T22:49:56.316Z,27.53
2023-01-01T22:52:24.705Z,19.13
2023-01-01T22:54:53.245Z,21.37
2023-01-01T22:57:21.668Z,20.43
2023-01-01T22:59:51.441Z,19.13
2023-01-01T23:02:19.950Z,21.07
2023-01-01T23:04:48.368Z,21.17
2023-01-01T23:07:16.827Z,22.00
2023-01-01T23:09:45.241Z,17.53
2023-01-01T23:12:13.746Z,21.70
2023-01-01T23:14:59.782Z,19.00
2023-01-01T23:17:29.592Z,20.00
2023-01-01T23:19:58.454Z,19.23
2023-01-01T23:22:29.667Z,20.47
2023-01-01T23:24:58.180Z,17.70
2023-01-01T23:27:26.740Z,16.40
2023-01-01T23:29:55.714Z,21.03
2023-01-01T23:32:24.408Z,16.63
2023-01-01T23:34:54.326Z,15.93
2023-01-01T23:37:22.906Z,17.43
2023-01-01T23:39:51.424Z,18.10
2023-01-01T23:42:20.056Z,16.80
2023-01-01T23:44:48.597Z,20.57
2023-01-01T23:47:17.499Z,19.00
2023-01-01T23:49:46.096Z,17.70
2023-01-01T23:52:15.881Z,14.50
2023-01-01T23:54:44.365Z,18.67
2023-01-01T23:57:14.170Z,17.40
2023-01-01T23:59:42.742Z,17.17
